Plan B — ZCND5 — position and weather

sailwx.info

Track history (hours):
 
Tides and Currents Weather Stations Pressure Air Temp Water Temp Dewpoint Dewpoint Depression Visibility Wind Speed Wind Dir Waves Ship Positions

Plan B

Last reported at 2016-Dec-03 15:32 UTC. Time now 2016-Dec-03 15:43 UTC.
Position N 17°01' W 061°47'.

Length 49 m; draft 3.2 m.

Type: Pleasure craft. MMSI: 319075000.

Date/timePositionNaut miles runAvg speedWind from/ knotsBaromVisibWave heightAir tempDewpointWater temp
2016-Dec-03 15:32N 17°01' W 061°47'0 0.0
2016-Dec-03 14:17N 17°01' W 061°47'0 0.2
2016-Dec-03 13:33N 17°01' W 061°47'37 0.8
2016-Dec-01 13:27N 17°38' W 061°51'0 0.0
2016-Dec-01 11:32N 17°38' W 061°51'4 4.5
2016-Dec-01 10:33N 17°35' W 061°54'1211.5
2016-Dec-01 09:33N 17°23' W 061°55'1111.5
2016-Dec-01 08:33N 17°12' W 061°56'1110.5
2016-Dec-01 07:33N 17°01' W 061°56'8 8.4
2016-Dec-01 06:33N 17°00' W 061°47'0 0.2
2016-Dec-01 05:32N 17°01' W 061°47'0 0.0
2016-Dec-01 04:28N 17°01' W 061°47'0 0.0
2016-Dec-01 03:31N 17°01' W 061°47'0 0.0
2016-Dec-01 02:31N 17°01' W 061°47'0 0.0
2016-Dec-01 01:31N 17°01' W 061°47'0 0.0
2016-Dec-01 00:31N 17°01' W 061°47'0 0.0
2016-Nov-30 23:31N 17°01' W 061°47'0 0.0
2016-Nov-30 22:31N 17°01' W 061°47'0 0.0
2016-Nov-30 21:31N 17°01' W 061°47'0 0.0
2016-Nov-30 20:31N 17°01' W 061°47'0 0.0
2016-Nov-30 19:31N 17°01' W 061°47'0 0.0
2016-Nov-30 18:31N 17°01' W 061°47'0 0.0
2016-Nov-30 17:31N 17°01' W 061°47'0 0.0
2016-Nov-30 16:31N 17°01' W 061°47'0 0.0
2016-Nov-30 15:31N 17°01' W 061°47'0 0.0
2016-Nov-30 14:31N 17°01' W 061°47'0 0.0
2016-Nov-30 13:31N 17°01' W 061°47'0 0.0
2016-Nov-30 12:31N 17°01' W 061°47'1 0.5
2016-Nov-30 11:33N 17°00' W 061°47'9 9.5
2016-Nov-30 10:34N 17°03' W 061°57'1010.5
2016-Nov-30 09:33N 17°11' W 061°49'3 3.0
2016-Nov-30 08:32N 17°09' W 061°47'0 0.0
2016-Nov-30 07:32N 17°09' W 061°47'0 0.0
2016-Nov-30 06:32N 17°09' W 061°47'0 0.0
2016-Nov-30 05:32N 17°09' W 061°47'0 0.0
2016-Nov-30 04:32N 17°09' W 061°47'0 0.0
2016-Nov-30 03:32N 17°09' W 061°47'0 0.0
2016-Nov-30 02:32N 17°09' W 061°47'0 0.0
2016-Nov-30 01:32N 17°09' W 061°47'0 0.0
2016-Nov-30 00:32N 17°09' W 061°47'0 0.0
2016-Nov-29 23:32N 17°09' W 061°47'0 0.0
2016-Nov-29 22:32N 17°09' W 061°47'0 0.0
2016-Nov-29 21:32N 17°09' W 061°47'0 0.0
2016-Nov-29 20:32N 17°09' W 061°47'0 0.0
2016-Nov-29 19:31N 17°09' W 061°47'0 0.0
2016-Nov-29 18:31N 17°09' W 061°47'0 0.0
2016-Nov-29 17:31N 17°09' W 061°47'0 0.0
2016-Nov-29 16:31N 17°09' W 061°47'0 0.0
2016-Nov-29 15:31N 17°09' W 061°47'0 0.0
2016-Nov-29 14:31N 17°09' W 061°47'0 0.0
2016-Nov-29 13:31N 17°09' W 061°47'0 0.0
2016-Nov-29 12:31N 17°09' W 061°47'0 0.0
2016-Nov-29 11:31N 17°09' W 061°47'0 0.0
2016-Nov-29 10:31N 17°09' W 061°47'0 0.0
2016-Nov-29 09:31N 17°09' W 061°47'0 0.0
2016-Nov-29 08:31N 17°09' W 061°47'0 0.0
2016-Nov-29 07:31N 17°09' W 061°46'0 0.0
2016-Nov-29 06:31N 17°09' W 061°47'0 0.0
2016-Nov-29 05:31N 17°09' W 061°46'0 0.0
2016-Nov-29 04:31N 17°09' W 061°47'0 0.0
2016-Nov-29 03:31N 17°09' W 061°47'0 0.0
2016-Nov-29 02:31N 17°09' W 061°47'0 0.0
2016-Nov-29 01:31N 17°09' W 061°47'0 0.0
2016-Nov-29 00:31N 17°09' W 061°47'0 0.0
2016-Nov-28 23:31N 17°09' W 061°47'0 0.0
2016-Nov-28 22:31N 17°09' W 061°47'0 0.0
2016-Nov-28 21:31N 17°09' W 061°47'0 0.0
2016-Nov-28 20:31N 17°09' W 061°47'0 0.0
2016-Nov-28 19:31N 17°09' W 061°47'0 0.0
2016-Nov-28 18:31N 17°09' W 061°47'0 0.0
2016-Nov-28 17:31N 17°09' W 061°47'0 0.0
2016-Nov-28 16:31N 17°09' W 061°47'0 0.0
2016-Nov-28 15:31N 17°09' W 061°47'0 0.0
2016-Nov-28 14:31N 17°09' W 061°47'0 0.0
2016-Nov-28 13:31N 17°09' W 061°47'0 0.0
2016-Nov-28 12:31N 17°09' W 061°47'0 0.0
2016-Nov-28 11:31N 17°09' W 061°46'0 0.0
2016-Nov-28 10:31N 17°09' W 061°47'0 0.0
2016-Nov-28 09:31N 17°09' W 061°47'0 0.0
2016-Nov-28 08:31N 17°09' W 061°47'0 0.0
2016-Nov-28 07:31N 17°09' W 061°47'0 0.0
2016-Nov-28 06:34N 17°09' W 061°47'0 0.0
2016-Nov-28 05:31N 17°09' W 061°47'0 0.0
2016-Nov-28 04:33N 17°09' W 061°47'0 0.0
2016-Nov-28 03:33N 17°09' W 061°47'0 0.0
2016-Nov-28 02:33N 17°09' W 061°47'0 0.0
2016-Nov-28 01:33N 17°09' W 061°47'0 0.0
2016-Nov-28 00:30N 17°09' W 061°47'0 0.0
2016-Nov-27 23:33N 17°09' W 061°47'0 0.0
2016-Nov-27 22:33N 17°09' W 061°47'0 0.0
2016-Nov-27 21:33N 17°09' W 061°47'0 0.0
2016-Nov-27 20:33N 17°09' W 061°47'0 0.0
2016-Nov-27 19:33N 17°09' W 061°47'0 0.0
2016-Nov-27 18:33N 17°09' W 061°47'0 0.0
2016-Nov-27 17:33N 17°09' W 061°47'0 0.0
2016-Nov-27 16:33N 17°09' W 061°47'0 0.0
2016-Nov-27 15:33N 17°09' W 061°47'0 0.0
2016-Nov-27 14:33N 17°09' W 061°47'3 2.7
2016-Nov-27 13:33N 17°11' W 061°48'8 8.1
2016-Nov-27 12:33N 17°07' W 061°56'8 8.4
2016-Nov-27 11:33N 16°60' W 061°52'4 4.4
2016-Nov-27 10:33N 17°01' W 061°47'0 0.0
2016-Nov-27 09:33N 17°01' W 061°47'0 0.0
2016-Nov-27 08:33N 17°01' W 061°47'0 0.0
2016-Nov-27 07:33N 17°01' W 061°47'0 0.0
2016-Nov-27 06:33N 17°01' W 061°47'0 0.0
2016-Nov-27 05:33N 17°01' W 061°47'0 0.0
2016-Nov-27 04:33N 17°01' W 061°47'0 0.0
2016-Nov-27 03:33N 17°01' W 061°47'0 0.0
2016-Nov-27 02:33N 17°01' W 061°47'0 0.0
2016-Nov-27 01:33N 17°01' W 061°47'0 0.0
2016-Nov-27 00:33N 17°01' W 061°47'0 0.0
2016-Nov-26 23:33N 17°01' W 061°47'0 0.0
2016-Nov-26 22:33N 17°01' W 061°47'0 0.0
2016-Nov-26 21:33N 17°01' W 061°47'0 0.0
2016-Nov-26 20:33N 17°01' W 061°47'0 0.0
2016-Nov-26 19:33N 17°01' W 061°47'0 0.0
2016-Nov-26 18:33N 17°01' W 061°47'0 0.0
2016-Nov-26 17:33N 17°01' W 061°47'0 0.0
2016-Nov-26 16:33N 17°01' W 061°47'0 0.0
2016-Nov-26 15:33N 17°01' W 061°47'0 0.0
2016-Nov-26 14:33N 17°01' W 061°47'0 0.0
2016-Nov-26 13:33N 17°01' W 061°47'0 0.0
2016-Nov-26 12:33N 17°01' W 061°47'0 0.0
2016-Nov-26 11:33N 17°01' W 061°47'0 0.0
2016-Nov-26 10:33N 17°01' W 061°47'0 0.0
2016-Nov-26 09:33N 17°01' W 061°47'0 0.0
2016-Nov-26 08:33N 17°01' W 061°47'0 0.0
2016-Nov-26 07:30N 17°01' W 061°47'0 0.0
2016-Nov-26 06:33N 17°01' W 061°47'0 0.0
2016-Nov-26 05:33N 17°01' W 061°47'0 0.0
2016-Nov-26 04:33N 17°01' W 061°47'0 0.0
2016-Nov-26 03:33N 17°01' W 061°47'0 0.0
2016-Nov-26 02:33N 17°01' W 061°47'0 0.0
2016-Nov-26 01:33N 17°01' W 061°47'0 0.0
2016-Nov-26 00:32N 17°01' W 061°47'0 0.0
2016-Nov-25 23:32N 17°01' W 061°47'0 0.0
2016-Nov-25 22:32N 17°01' W 061°47'0 0.0
2016-Nov-25 21:32N 17°01' W 061°47'0 0.0
2016-Nov-25 20:33N 17°01' W 061°47'8 8.1
2016-Nov-25 19:33N 17°01' W 061°55'1110.8
2016-Nov-25 18:33N 17°12' W 061°57'1111.4
2016-Nov-25 17:33N 17°23' W 061°55'1111.1
2016-Nov-25 16:33N 17°33' W 061°51'1 1.2
2016-Nov-25 15:34N 17°34' W 061°50'5 4.6
2016-Nov-25 14:33N 17°39' W 061°52'1 0.6
2016-Nov-25 12:33N 17°39' W 061°53'1010.1
2016-Nov-25 11:33N 17°40' W 062°03'5710.5
2016-Nov-25 06:11N 17°55' W 063°00'610.5
2016-Nov-25 05:33N 17°59' W 063°06'3 2.3
2016-Nov-25 04:21N 18°02' W 063°06'0 0.0
2016-Nov-25 03:21N 18°02' W 063°06'0 0.0
2016-Nov-25 02:33N 18°02' W 063°06'0 0.0
2016-Nov-25 01:33N 18°02' W 063°06'0 0.0
2016-Nov-25 00:24N 18°02' W 063°06'0 0.0
2016-Nov-24 23:24N 18°02' W 063°06'0 0.0
2016-Nov-24 22:27N 18°02' W 063°06'0 0.0
2016-Nov-24 21:27N 18°02' W 063°06'0 0.0
2016-Nov-24 20:27N 18°02' W 063°06'1 0.8
2016-Nov-24 19:33N 18°02' W 063°06'0 0.0
2016-Nov-24 18:33N 18°02' W 063°06'0 0.0
2016-Nov-24 17:24N 18°02' W 063°06'0 0.0
2016-Nov-24 16:24N 18°02' W 063°06'0 0.0
2016-Nov-24 15:27N 18°02' W 063°06'0 0.0
2016-Nov-24 14:24N 18°02' W 063°06'0 0.0
2016-Nov-24 13:24N 18°02' W 063°06'0 0.0
2016-Nov-24 12:27N 18°02' W 063°06'0 0.0
2016-Nov-24 11:24N 18°02' W 063°06'0 0.0
2016-Nov-24 10:30N 18°02' W 063°06'0 0.0
2016-Nov-24 09:30N 18°02' W 063°06'0 0.0
2016-Nov-24 08:30N 18°02' W 063°06'0 0.0
2016-Nov-24 07:18N 18°02' W 063°06'0 0.0
2016-Nov-24 06:30N 18°02' W 063°06'0 0.0
2016-Nov-24 05:33N 18°02' W 063°06'0 0.0
2016-Nov-24 04:18N 18°02' W 063°06'0 0.0
2016-Nov-24 03:33N 18°02' W 063°06'0 0.0
2016-Nov-24 02:21N 18°02' W 063°06'0 0.0
2016-Nov-24 01:33N 18°02' W 063°06'0 0.0
2016-Nov-24 00:33N 18°02' W 063°06'0 0.0
2016-Nov-23 23:21N 18°02' W 063°06'0 0.0
2016-Nov-23 22:33N 18°02' W 063°06'0 0.0
2016-Nov-23 21:33N 18°02' W 063°06'0 0.0
2016-Nov-23 20:24N 18°02' W 063°06'0 0.0
2016-Nov-23 18:27N 18°02' W 063°06'0 0.0
2016-Nov-23 17:26N 18°02' W 063°06'0 0.0
2016-Nov-23 16:26N 18°02' W 063°06'  
Track history (hours):
 
Tides and Currents Weather Stations Pressure Air Temp Water Temp Dewpoint Dewpoint Depression Visibility Wind Speed Wind Dir Waves Ship Positions

Plan B

Last reported at 2016-Dec-03 15:32 UTC. Time now 2016-Dec-03 15:43 UTC.
Position N 17°01' W 061°47'.

Length 49 m; draft 3.2 m.

Type: Pleasure craft. MMSI: 319075000.

Date/timePositionNaut miles runAvg speedWind from/ knotsBaromVisibWave heightAir tempDewpointWater temp
2016-Dec-03 15:32N 17°01' W 061°47'0 0.0
2016-Dec-03 14:17N 17°01' W 061°47'0 0.2
2016-Dec-03 13:33N 17°01' W 061°47'37 0.8
2016-Dec-01 13:27N 17°38' W 061°51'0 0.0
2016-Dec-01 11:32N 17°38' W 061°51'4 4.5
2016-Dec-01 10:33N 17°35' W 061°54'1211.5
2016-Dec-01 09:33N 17°23' W 061°55'1111.5
2016-Dec-01 08:33N 17°12' W 061°56'1110.5
2016-Dec-01 07:33N 17°01' W 061°56'8 8.4
2016-Dec-01 06:33N 17°00' W 061°47'0 0.2
2016-Dec-01 05:32N 17°01' W 061°47'0 0.0
2016-Dec-01 04:28N 17°01' W 061°47'0 0.0
2016-Dec-01 03:31N 17°01' W 061°47'0 0.0
2016-Dec-01 02:31N 17°01' W 061°47'0 0.0
2016-Dec-01 01:31N 17°01' W 061°47'0 0.0
2016-Dec-01 00:31N 17°01' W 061°47'0 0.0
2016-Nov-30 23:31N 17°01' W 061°47'0 0.0
2016-Nov-30 22:31N 17°01' W 061°47'0 0.0
2016-Nov-30 21:31N 17°01' W 061°47'0 0.0
2016-Nov-30 20:31N 17°01' W 061°47'0 0.0
2016-Nov-30 19:31N 17°01' W 061°47'0 0.0
2016-Nov-30 18:31N 17°01' W 061°47'0 0.0
2016-Nov-30 17:31N 17°01' W 061°47'0 0.0
2016-Nov-30 16:31N 17°01' W 061°47'0 0.0
2016-Nov-30 15:31N 17°01' W 061°47'0 0.0
2016-Nov-30 14:31N 17°01' W 061°47'0 0.0
2016-Nov-30 13:31N 17°01' W 061°47'0 0.0
2016-Nov-30 12:31N 17°01' W 061°47'1 0.5
2016-Nov-30 11:33N 17°00' W 061°47'9 9.5
2016-Nov-30 10:34N 17°03' W 061°57'1010.5
2016-Nov-30 09:33N 17°11' W 061°49'3 3.0
2016-Nov-30 08:32N 17°09' W 061°47'0 0.0
2016-Nov-30 07:32N 17°09' W 061°47'0 0.0
2016-Nov-30 06:32N 17°09' W 061°47'0 0.0
2016-Nov-30 05:32N 17°09' W 061°47'0 0.0
2016-Nov-30 04:32N 17°09' W 061°47'0 0.0
2016-Nov-30 03:32N 17°09' W 061°47'0 0.0
2016-Nov-30 02:32N 17°09' W 061°47'0 0.0
2016-Nov-30 01:32N 17°09' W 061°47'0 0.0
2016-Nov-30 00:32N 17°09' W 061°47'0 0.0
2016-Nov-29 23:32N 17°09' W 061°47'0 0.0
2016-Nov-29 22:32N 17°09' W 061°47'0 0.0
2016-Nov-29 21:32N 17°09' W 061°47'0 0.0
2016-Nov-29 20:32N 17°09' W 061°47'0 0.0
2016-Nov-29 19:31N 17°09' W 061°47'0 0.0
2016-Nov-29 18:31N 17°09' W 061°47'0 0.0
2016-Nov-29 17:31N 17°09' W 061°47'0 0.0
2016-Nov-29 16:31N 17°09' W 061°47'0 0.0
2016-Nov-29 15:31N 17°09' W 061°47'0 0.0
2016-Nov-29 14:31N 17°09' W 061°47'0 0.0
2016-Nov-29 13:31N 17°09' W 061°47'0 0.0
2016-Nov-29 12:31N 17°09' W 061°47'0 0.0
2016-Nov-29 11:31N 17°09' W 061°47'0 0.0
2016-Nov-29 10:31N 17°09' W 061°47'0 0.0
2016-Nov-29 09:31N 17°09' W 061°47'0 0.0
2016-Nov-29 08:31N 17°09' W 061°47'0 0.0
2016-Nov-29 07:31N 17°09' W 061°46'0 0.0
2016-Nov-29 06:31N 17°09' W 061°47'0 0.0
2016-Nov-29 05:31N 17°09' W 061°46'0 0.0
2016-Nov-29 04:31N 17°09' W 061°47'0 0.0
2016-Nov-29 03:31N 17°09' W 061°47'0 0.0
2016-Nov-29 02:31N 17°09' W 061°47'0 0.0
2016-Nov-29 01:31N 17°09' W 061°47'0 0.0
2016-Nov-29 00:31N 17°09' W 061°47'0 0.0
2016-Nov-28 23:31N 17°09' W 061°47'0 0.0
2016-Nov-28 22:31N 17°09' W 061°47'0 0.0
2016-Nov-28 21:31N 17°09' W 061°47'0 0.0
2016-Nov-28 20:31N 17°09' W 061°47'0 0.0
2016-Nov-28 19:31N 17°09' W 061°47'0 0.0
2016-Nov-28 18:31N 17°09' W 061°47'0 0.0
2016-Nov-28 17:31N 17°09' W 061°47'0 0.0
2016-Nov-28 16:31N 17°09' W 061°47'0 0.0
2016-Nov-28 15:31N 17°09' W 061°47'0 0.0
2016-Nov-28 14:31N 17°09' W 061°47'0 0.0
2016-Nov-28 13:31N 17°09' W 061°47'0 0.0
2016-Nov-28 12:31N 17°09' W 061°47'0 0.0
2016-Nov-28 11:31N 17°09' W 061°46'0 0.0
2016-Nov-28 10:31N 17°09' W 061°47'0 0.0
2016-Nov-28 09:31N 17°09' W 061°47'0 0.0
2016-Nov-28 08:31N 17°09' W 061°47'0 0.0
2016-Nov-28 07:31N 17°09' W 061°47'0 0.0
2016-Nov-28 06:34N 17°09' W 061°47'0 0.0
2016-Nov-28 05:31N 17°09' W 061°47'0 0.0
2016-Nov-28 04:33N 17°09' W 061°47'0 0.0
2016-Nov-28 03:33N 17°09' W 061°47'0 0.0
2016-Nov-28 02:33N 17°09' W 061°47'0 0.0
2016-Nov-28 01:33N 17°09' W 061°47'0 0.0
2016-Nov-28 00:30N 17°09' W 061°47'0 0.0
2016-Nov-27 23:33N 17°09' W 061°47'0 0.0
2016-Nov-27 22:33N 17°09' W 061°47'0 0.0
2016-Nov-27 21:33N 17°09' W 061°47'0 0.0
2016-Nov-27 20:33N 17°09' W 061°47'0 0.0
2016-Nov-27 19:33N 17°09' W 061°47'0 0.0
2016-Nov-27 18:33N 17°09' W 061°47'0 0.0
2016-Nov-27 17:33N 17°09' W 061°47'0 0.0
2016-Nov-27 16:33N 17°09' W 061°47'0 0.0
2016-Nov-27 15:33N 17°09' W 061°47'0 0.0
2016-Nov-27 14:33N 17°09' W 061°47'3 2.7
2016-Nov-27 13:33N 17°11' W 061°48'8 8.1
2016-Nov-27 12:33N 17°07' W 061°56'8 8.4
2016-Nov-27 11:33N 16°60' W 061°52'4 4.4
2016-Nov-27 10:33N 17°01' W 061°47'0 0.0
2016-Nov-27 09:33N 17°01' W 061°47'0 0.0
2016-Nov-27 08:33N 17°01' W 061°47'0 0.0
2016-Nov-27 07:33N 17°01' W 061°47'0 0.0
2016-Nov-27 06:33N 17°01' W 061°47'0 0.0
2016-Nov-27 05:33N 17°01' W 061°47'0 0.0
2016-Nov-27 04:33N 17°01' W 061°47'0 0.0
2016-Nov-27 03:33N 17°01' W 061°47'0 0.0
2016-Nov-27 02:33N 17°01' W 061°47'0 0.0
2016-Nov-27 01:33N 17°01' W 061°47'0 0.0
2016-Nov-27 00:33N 17°01' W 061°47'0 0.0
2016-Nov-26 23:33N 17°01' W 061°47'0 0.0
2016-Nov-26 22:33N 17°01' W 061°47'0 0.0
2016-Nov-26 21:33N 17°01' W 061°47'0 0.0
2016-Nov-26 20:33N 17°01' W 061°47'0 0.0
2016-Nov-26 19:33N 17°01' W 061°47'0 0.0
2016-Nov-26 18:33N 17°01' W 061°47'0 0.0
2016-Nov-26 17:33N 17°01' W 061°47'0 0.0
2016-Nov-26 16:33N 17°01' W 061°47'0 0.0
2016-Nov-26 15:33N 17°01' W 061°47'0 0.0
2016-Nov-26 14:33N 17°01' W 061°47'0 0.0
2016-Nov-26 13:33N 17°01' W 061°47'0 0.0
2016-Nov-26 12:33N 17°01' W 061°47'0 0.0
2016-Nov-26 11:33N 17°01' W 061°47'0 0.0
2016-Nov-26 10:33N 17°01' W 061°47'0 0.0
2016-Nov-26 09:33N 17°01' W 061°47'0 0.0
2016-Nov-26 08:33N 17°01' W 061°47'0 0.0
2016-Nov-26 07:30N 17°01' W 061°47'0 0.0
2016-Nov-26 06:33N 17°01' W 061°47'0 0.0
2016-Nov-26 05:33N 17°01' W 061°47'0 0.0
2016-Nov-26 04:33N 17°01' W 061°47'0 0.0
2016-Nov-26 03:33N 17°01' W 061°47'0 0.0
2016-Nov-26 02:33N 17°01' W 061°47'0 0.0
2016-Nov-26 01:33N 17°01' W 061°47'0 0.0
2016-Nov-26 00:32N 17°01' W 061°47'0 0.0
2016-Nov-25 23:32N 17°01' W 061°47'0 0.0
2016-Nov-25 22:32N 17°01' W 061°47'0 0.0
2016-Nov-25 21:32N 17°01' W 061°47'0 0.0
2016-Nov-25 20:33N 17°01' W 061°47'8 8.1
2016-Nov-25 19:33N 17°01' W 061°55'1110.8
2016-Nov-25 18:33N 17°12' W 061°57'1111.4
2016-Nov-25 17:33N 17°23' W 061°55'1111.1
2016-Nov-25 16:33N 17°33' W 061°51'1 1.2
2016-Nov-25 15:34N 17°34' W 061°50'5 4.6
2016-Nov-25 14:33N 17°39' W 061°52'1 0.6
2016-Nov-25 12:33N 17°39' W 061°53'1010.1
2016-Nov-25 11:33N 17°40' W 062°03'5710.5
2016-Nov-25 06:11N 17°55' W 063°00'610.5
2016-Nov-25 05:33N 17°59' W 063°06'3 2.3
2016-Nov-25 04:21N 18°02' W 063°06'0 0.0
2016-Nov-25 03:21N 18°02' W 063°06'0 0.0
2016-Nov-25 02:33N 18°02' W 063°06'0 0.0
2016-Nov-25 01:33N 18°02' W 063°06'0 0.0
2016-Nov-25 00:24N 18°02' W 063°06'0 0.0
2016-Nov-24 23:24N 18°02' W 063°06'0 0.0
2016-Nov-24 22:27N 18°02' W 063°06'0 0.0
2016-Nov-24 21:27N 18°02' W 063°06'0 0.0
2016-Nov-24 20:27N 18°02' W 063°06'1 0.8
2016-Nov-24 19:33N 18°02' W 063°06'0 0.0
2016-Nov-24 18:33N 18°02' W 063°06'0 0.0
2016-Nov-24 17:24N 18°02' W 063°06'0 0.0
2016-Nov-24 16:24N 18°02' W 063°06'0 0.0
2016-Nov-24 15:27N 18°02' W 063°06'0 0.0
2016-Nov-24 14:24N 18°02' W 063°06'0 0.0
2016-Nov-24 13:24N 18°02' W 063°06'0 0.0
2016-Nov-24 12:27N 18°02' W 063°06'0 0.0
2016-Nov-24 11:24N 18°02' W 063°06'0 0.0
2016-Nov-24 10:30N 18°02' W 063°06'0 0.0
2016-Nov-24 09:30N 18°02' W 063°06'0 0.0
2016-Nov-24 08:30N 18°02' W 063°06'0 0.0
2016-Nov-24 07:18N 18°02' W 063°06'0 0.0
2016-Nov-24 06:30N 18°02' W 063°06'0 0.0
2016-Nov-24 05:33N 18°02' W 063°06'0 0.0
2016-Nov-24 04:18N 18°02' W 063°06'0 0.0
2016-Nov-24 03:33N 18°02' W 063°06'0 0.0
2016-Nov-24 02:21N 18°02' W 063°06'0 0.0
2016-Nov-24 01:33N 18°02' W 063°06'0 0.0
2016-Nov-24 00:33N 18°02' W 063°06'0 0.0
2016-Nov-23 23:21N 18°02' W 063°06'0 0.0
2016-Nov-23 22:33N 18°02' W 063°06'0 0.0
2016-Nov-23 21:33N 18°02' W 063°06'0 0.0
2016-Nov-23 20:24N 18°02' W 063°06'0 0.0
2016-Nov-23 18:27N 18°02' W 063°06'0 0.0
2016-Nov-23 17:26N 18°02' W 063°06'0 0.0
2016-Nov-23 16:26N 18°02' W 063°06'  

Dump ship's entire track history